イヌヴィック空港の過去48時間の天気

イヌヴィック空港 (Inuvik)

現在時刻: 9/25 14:39 MDT (9/25 20:39 UTC) 以下の時間は現地時間です。

過去48時間のMETAR気象情報
時間 風向 風速(m/s) 視程 気温(℃) 湿度(%) 気圧(hPa) 天気現象
25 14:00 東南東 2 10km以上 2 87 1015.3
CYEV 252000Z 11003KT 050V120 15SM SCT008 OVC046 02/00 A2996 RMK SF4SC4 SLP153